sensor_id;sensor_type;location;lat;lon;timestamp;P1;durP1;ratioP1;P2;durP2;ratioP2
75379;SDS011;65641;44.714;37.756;2023-02-22T00:00:24;3.63;;;1.08;;
75379;SDS011;65641;44.714;37.756;2023-02-22T00:01:41;1.95;;;0.63;;
75379;SDS011;65641;44.714;37.756;2023-02-22T00:04:26;2.75;;;0.90;;
75379;SDS011;65641;44.714;37.756;2023-02-22T00:05:29;1.83;;;0.73;;
75379;SDS011;65641;44.714;37.756;2023-02-22T00:06:32;2.60;;;0.60;;
75379;SDS011;65641;44.714;37.756;2023-02-22T00:07:36;3.33;;;0.85;;
75379;SDS011;65641;44.714;37.756;2023-02-22T00:08:38;3.25;;;0.80;;
75379;SDS011;65641;44.714;37.756;2023-02-22T00:09:41;1.63;;;0.40;;
75379;SDS011;65641;44.714;37.756;2023-02-22T00:10:45;1.85;;;0.50;;
75379;SDS011;65641;44.714;37.756;2023-02-22T00:11:48;2.50;;;0.80;;
75379;SDS011;65641;44.714;37.756;2023-02-22T00:12:52;2.05;;;0.50;;
75379;SDS011;65641;44.714;37.756;2023-02-22T00:13:56;3.10;;;0.88;;
75379;SDS011;65641;44.714;37.756;2023-02-22T00:14:59;2.13;;;0.85;;
75379;SDS011;65641;44.714;37.756;2023-02-22T00:16:05;1.05;;;0.43;;
75379;SDS011;65641;44.714;37.756;2023-02-22T00:17:08;2.42;;;0.80;;
75379;SDS011;65641;44.714;37.756;2023-02-22T00:18:15;2.00;;;0.90;;
75379;SDS011;65641;44.714;37.756;2023-02-22T00:19:20;3.05;;;0.80;;
75379;SDS011;65641;44.714;37.756;2023-02-22T00:20:23;2.80;;;0.98;;
75379;SDS011;65641;44.714;37.756;2023-02-22T00:21:26;1.70;;;0.75;;
75379;SDS011;65641;44.714;37.756;2023-02-22T00:22:29;2.03;;;0.63;;
75379;SDS011;65641;44.714;37.756;2023-02-22T00:23:32;3.30;;;0.80;;
75379;SDS011;65641;44.714;37.756;2023-02-22T00:24:36;2.78;;;0.75;;
75379;SDS011;65641;44.714;37.756;2023-02-22T00:25:39;1.60;;;0.73;;
75379;SDS011;65641;44.714;37.756;2023-02-22T00:26:42;2.10;;;0.70;;
75379;SDS011;65641;44.714;37.756;2023-02-22T00:27:48;2.28;;;0.70;;
75379;SDS011;65641;44.714;37.756;2023-02-22T00:28:55;1.13;;;0.50;;
75379;SDS011;65641;44.714;37.756;2023-02-22T00:29:58;2.30;;;0.68;;
75379;SDS011;65641;44.714;37.756;2023-02-22T00:31:01;2.55;;;0.63;;
75379;SDS011;65641;44.714;37.756;2023-02-22T00:32:08;3.17;;;0.73;;
75379;SDS011;65641;44.714;37.756;2023-02-22T00:33:12;2.45;;;0.43;;
75379;SDS011;65641;44.714;37.756;2023-02-22T00:34:16;1.42;;;0.52;;
75379;SDS011;65641;44.714;37.756;2023-02-22T00:35:20;1.85;;;0.60;;
75379;SDS011;65641;44.714;37.756;2023-02-22T00:36:26;2.10;;;1.00;;
75379;SDS011;65641;44.714;37.756;2023-02-22T00:37:29;1.98;;;0.50;;
75379;SDS011;65641;44.714;37.756;2023-02-22T00:38:33;2.30;;;0.75;;
75379;SDS011;65641;44.714;37.756;2023-02-22T00:39:36;1.50;;;0.65;;
75379;SDS011;65641;44.714;37.756;2023-02-22T00:40:39;1.83;;;0.63;;
75379;SDS011;65641;44.714;37.756;2023-02-22T00:41:42;1.67;;;0.60;;
75379;SDS011;65641;44.714;37.756;2023-02-22T00:42:46;2.63;;;0.50;;
75379;SDS011;65641;44.714;37.756;2023-02-22T00:43:55;1.65;;;0.43;;
75379;SDS011;65641;44.714;37.756;2023-02-22T00:44:58;2.60;;;1.17;;
75379;SDS011;65641;44.714;37.756;2023-02-22T00:46:01;1.00;;;0.57;;
75379;SDS011;65641;44.714;37.756;2023-02-22T00:47:04;2.13;;;0.65;;
75379;SDS011;65641;44.714;37.756;2023-02-22T00:48:08;2.47;;;0.60;;
75379;SDS011;65641;44.714;37.756;2023-02-22T00:49:12;1.25;;;0.50;;
75379;SDS011;65641;44.714;37.756;2023-02-22T00:50:17;1.67;;;0.60;;
75379;SDS011;65641;44.714;37.756;2023-02-22T00:51:21;2.00;;;0.50;;
75379;SDS011;65641;44.714;37.756;2023-02-22T00:52:27;2.22;;;0.60;;
75379;SDS011;65641;44.714;37.756;2023-02-22T00:53:30;2.20;;;0.68;;
75379;SDS011;65641;44.714;37.756;2023-02-22T00:54:34;2.83;;;0.73;;
75379;SDS011;65641;44.714;37.756;2023-02-22T00:55:37;4.10;;;0.80;;
75379;SDS011;65641;44.714;37.756;2023-02-22T00:56:40;1.83;;;0.73;;
75379;SDS011;65641;44.714;37.756;2023-02-22T00:57:43;1.88;;;0.47;;
75379;SDS011;65641;44.714;37.756;2023-02-22T00:58:47;3.33;;;0.45;;
75379;SDS011;65641;44.714;37.756;2023-02-22T00:59:50;1.60;;;0.50;;
75379;SDS011;65641;44.714;37.756;2023-02-22T01:00:53;1.52;;;0.68;;
75379;SDS011;65641;44.714;37.756;2023-02-22T01:01:56;1.00;;;0.40;;
75379;SDS011;65641;44.714;37.756;2023-02-22T01:03:00;2.78;;;0.40;;
75379;SDS011;65641;44.714;37.756;2023-02-22T01:04:03;1.63;;;0.95;;
75379;SDS011;65641;44.714;37.756;2023-02-22T01:05:10;1.40;;;0.50;;
75379;SDS011;65641;44.714;37.756;2023-02-22T01:06:15;1.88;;;0.85;;
75379;SDS011;65641;44.714;37.756;2023-02-22T01:07:18;3.70;;;0.60;;
75379;SDS011;65641;44.714;37.756;2023-02-22T01:08:22;2.53;;;0.85;;
75379;SDS011;65641;44.714;37.756;2023-02-22T01:09:26;1.80;;;0.57;;
75379;SDS011;65641;44.714;37.756;2023-02-22T01:10:29;2.30;;;0.70;;
75379;SDS011;65641;44.714;37.756;2023-02-22T01:11:33;1.75;;;0.70;;
75379;SDS011;65641;44.714;37.756;2023-02-22T01:12:36;1.30;;;0.95;;
75379;SDS011;65641;44.714;37.756;2023-02-22T01:13:39;2.05;;;0.60;;
75379;SDS011;65641;44.714;37.756;2023-02-22T01:14:42;1.20;;;0.30;;
75379;SDS011;65641;44.714;37.756;2023-02-22T01:15:45;1.50;;;0.60;;
75379;SDS011;65641;44.714;37.756;2023-02-22T01:16:49;3.03;;;1.00;;
75379;SDS011;65641;44.714;37.756;2023-02-22T01:17:52;1.25;;;0.57;;
75379;SDS011;65641;44.714;37.756;2023-02-22T01:18:56;1.45;;;0.80;;
75379;SDS011;65641;44.714;37.756;2023-02-22T01:19:59;2.58;;;0.80;;
75379;SDS011;65641;44.714;37.756;2023-02-22T01:21:02;1.98;;;0.40;;
75379;SDS011;65641;44.714;37.756;2023-02-22T01:22:06;2.80;;;0.80;;
75379;SDS011;65641;44.714;37.756;2023-02-22T01:23:09;1.50;;;0.63;;
75379;SDS011;65641;44.714;37.756;2023-02-22T01:24:18;1.45;;;1.05;;
75379;SDS011;65641;44.714;37.756;2023-02-22T01:25:24;1.20;;;0.63;;
75379;SDS011;65641;44.714;37.756;2023-02-22T01:26:29;1.33;;;0.50;;
75379;SDS011;65641;44.714;37.756;2023-02-22T01:27:33;2.50;;;0.52;;
75379;SDS011;65641;44.714;37.756;2023-02-22T01:28:37;1.88;;;0.40;;
75379;SDS011;65641;44.714;37.756;2023-02-22T01:29:40;2.00;;;1.00;;
75379;SDS011;65641;44.714;37.756;2023-02-22T01:30:43;2.65;;;0.80;;
75379;SDS011;65641;44.714;37.756;2023-02-22T01:31:50;0.95;;;0.60;;
75379;SDS011;65641;44.714;37.756;2023-02-22T01:32:56;1.65;;;0.40;;
75379;SDS011;65641;44.714;37.756;2023-02-22T01:33:59;1.92;;;0.63;;
75379;SDS011;65641;44.714;37.756;2023-02-22T01:35:04;0.90;;;0.43;;
75379;SDS011;65641;44.714;37.756;2023-02-22T01:36:09;1.95;;;0.43;;
75379;SDS011;65641;44.714;37.756;2023-02-22T01:37:12;1.75;;;1.15;;
75379;SDS011;65641;44.714;37.756;2023-02-22T01:38:16;2.17;;;0.40;;
75379;SDS011;65641;44.714;37.756;2023-02-22T01:39:19;2.42;;;0.60;;
75379;SDS011;65641;44.714;37.756;2023-02-22T01:40:24;1.25;;;0.52;;
75379;SDS011;65641;44.714;37.756;2023-02-22T01:41:30;1.13;;;0.60;;
75379;SDS011;65641;44.714;37.756;2023-02-22T01:42:34;1.33;;;0.70;;
75379;SDS011;65641;44.714;37.756;2023-02-22T01:43:37;1.20;;;0.55;;
75379;SDS011;65641;44.714;37.756;2023-02-22T01:44:40;1.35;;;0.40;;
75379;SDS011;65641;44.714;37.756;2023-02-22T01:47:03;1.42;;;0.65;;
75379;SDS011;65641;44.714;37.756;2023-02-22T01:49:13;1.35;;;0.60;;
75379;SDS011;65641;44.714;37.756;2023-02-22T01:50:16;1.63;;;0.40;;
75379;SDS011;65641;44.714;37.756;2023-02-22T01:51:23;1.88;;;0.70;;
75379;SDS011;65641;44.714;37.756;2023-02-22T01:52:39;1.65;;;0.52;;
75379;SDS011;65641;44.714;37.756;2023-02-22T01:53:47;1.02;;;0.55;;
75379;SDS011;65641;44.714;37.756;2023-02-22T01:54:55;1.13;;;0.50;;
75379;SDS011;65641;44.714;37.756;2023-02-22T01:56:00;2.15;;;0.68;;
75379;SDS011;65641;44.714;37.756;2023-02-22T01:57:15;1.95;;;0.50;;
75379;SDS011;65641;44.714;37.756;2023-02-22T01:58:20;2.60;;;0.30;;
75379;SDS011;65641;44.714;37.756;2023-02-22T01:59:25;3.15;;;0.45;;
75379;SDS011;65641;44.714;37.756;2023-02-22T02:00:30;1.27;;;0.50;;
75379;SDS011;65641;44.714;37.756;2023-02-22T02:01:35;2.75;;;0.60;;
75379;SDS011;65641;44.714;37.756;2023-02-22T02:02:41;1.83;;;0.47;;
75379;SDS011;65641;44.714;37.756;2023-02-22T02:03:47;1.55;;;0.47;;
75379;SDS011;65641;44.714;37.756;2023-02-22T02:04:52;1.67;;;0.60;;
75379;SDS011;65641;44.714;37.756;2023-02-22T02:05:58;1.52;;;0.40;;
75379;SDS011;65641;44.714;37.756;2023-02-22T02:07:08;1.60;;;0.70;;
75379;SDS011;65641;44.714;37.756;2023-02-22T02:08:20;2.05;;;0.77;;
75379;SDS011;65641;44.714;37.756;2023-02-22T02:09:47;3.92;;;0.52;;
75379;SDS011;65641;44.714;37.756;2023-02-22T02:10:54;3.15;;;0.63;;
75379;SDS011;65641;44.714;37.756;2023-02-22T02:11:59;2.45;;;0.85;;
75379;SDS011;65641;44.714;37.756;2023-02-22T02:13:04;1.52;;;0.40;;
75379;SDS011;65641;44.714;37.756;2023-02-22T02:14:08;1.27;;;0.73;;
75379;SDS011;65641;44.714;37.756;2023-02-22T02:15:20;2.05;;;0.45;;
75379;SDS011;65641;44.714;37.756;2023-02-22T02:16:38;2.70;;;0.73;;
75379;SDS011;65641;44.714;37.756;2023-02-22T02:17:44;0.98;;;0.30;;
75379;SDS011;65641;44.714;37.756;2023-02-22T02:18:48;1.88;;;0.60;;
75379;SDS011;65641;44.714;37.756;2023-02-22T02:20:03;1.42;;;0.95;;
75379;SDS011;65641;44.714;37.756;2023-02-22T02:21:29;2.17;;;0.55;;
75379;SDS011;65641;44.714;37.756;2023-02-22T02:22:54;1.30;;;0.40;;
75379;SDS011;65641;44.714;37.756;2023-02-22T02:27:11;1.38;;;0.50;;
75379;SDS011;65641;44.714;37.756;2023-02-22T02:33:49;1.48;;;0.55;;
75379;SDS011;65641;44.714;37.756;2023-02-22T02:34:57;2.28;;;0.65;;
75379;SDS011;65641;44.714;37.756;2023-02-22T02:39:07;2.60;;;0.70;;
75379;SDS011;65641;44.714;37.756;2023-02-22T02:40:47;2.83;;;0.70;;
75379;SDS011;65641;44.714;37.756;2023-02-22T02:41:56;2.75;;;0.77;;
75379;SDS011;65641;44.714;37.756;2023-02-22T02:43:28;1.75;;;0.50;;
75379;SDS011;65641;44.714;37.756;2023-02-22T02:44:36;1.50;;;0.50;;
75379;SDS011;65641;44.714;37.756;2023-02-22T02:47:27;2.55;;;0.40;;
75379;SDS011;65641;44.714;37.756;2023-02-22T02:48:36;3.03;;;0.98;;
75379;SDS011;65641;44.714;37.756;2023-02-22T02:49:47;1.40;;;0.65;;
75379;SDS011;65641;44.714;37.756;2023-02-22T02:50:57;1.70;;;0.82;;
75379;SDS011;65641;44.714;37.756;2023-02-22T02:52:03;1.30;;;0.70;;
75379;SDS011;65641;44.714;37.756;2023-02-22T02:53:07;0.90;;;0.40;;
75379;SDS011;65641;44.714;37.756;2023-02-22T02:54:12;2.33;;;0.88;;
75379;SDS011;65641;44.714;37.756;2023-02-22T02:55:16;2.35;;;0.52;;
75379;SDS011;65641;44.714;37.756;2023-02-22T02:56:20;1.83;;;0.40;;
75379;SDS011;65641;44.714;37.756;2023-02-22T02:57:24;1.85;;;0.60;;
75379;SDS011;65641;44.714;37.756;2023-02-22T02:58:27;2.50;;;0.80;;
75379;SDS011;65641;44.714;37.756;2023-02-22T02:59:35;1.33;;;0.50;;
75379;SDS011;65641;44.714;37.756;2023-02-22T03:00:39;1.58;;;0.52;;
75379;SDS011;65641;44.714;37.756;2023-02-22T03:01:48;0.90;;;0.50;;
75379;SDS011;65641;44.714;37.756;2023-02-22T03:08:33;1.23;;;0.43;;
75379;SDS011;65641;44.714;37.756;2023-02-22T03:09:52;1.65;;;0.30;;
75379;SDS011;65641;44.714;37.756;2023-02-22T03:11:31;1.60;;;0.68;;
75379;SDS011;65641;44.714;37.756;2023-02-22T03:13:18;1.73;;;0.60;;
75379;SDS011;65641;44.714;37.756;2023-02-22T03:16:24;1.77;;;0.60;;
75379;SDS011;65641;44.714;37.756;2023-02-22T03:17:36;1.42;;;0.70;;
75379;SDS011;65641;44.714;37.756;2023-02-22T03:18:51;1.38;;;0.93;;
75379;SDS011;65641;44.714;37.756;2023-02-22T03:20:09;2.03;;;1.10;;
75379;SDS011;65641;44.714;37.756;2023-02-22T03:22:56;3.45;;;0.80;;
75379;SDS011;65641;44.714;37.756;2023-02-22T03:24:11;0.93;;;0.50;;
75379;SDS011;65641;44.714;37.756;2023-02-22T03:25:24;2.33;;;0.52;;
75379;SDS011;65641;44.714;37.756;2023-02-22T03:26:56;1.30;;;0.70;;
75379;SDS011;65641;44.714;37.756;2023-02-22T03:28:07;1.73;;;0.68;;
75379;SDS011;65641;44.714;37.756;2023-02-22T03:29:13;1.50;;;0.30;;
75379;SDS011;65641;44.714;37.756;2023-02-22T03:30:40;2.00;;;0.93;;
75379;SDS011;65641;44.714;37.756;2023-02-22T03:31:52;1.85;;;0.32;;
75379;SDS011;65641;44.714;37.756;2023-02-22T03:33:15;2.90;;;0.70;;
75379;SDS011;65641;44.714;37.756;2023-02-22T03:34:27;1.73;;;0.43;;
75379;SDS011;65641;44.714;37.756;2023-02-22T03:35:36;3.30;;;0.60;;
75379;SDS011;65641;44.714;37.756;2023-02-22T03:36:51;1.52;;;0.68;;
75379;SDS011;65641;44.714;37.756;2023-02-22T03:38:01;2.20;;;0.80;;
75379;SDS011;65641;44.714;37.756;2023-02-22T03:39:12;1.33;;;0.65;;
75379;SDS011;65641;44.714;37.756;2023-02-22T03:41:47;1.65;;;0.70;;
75379;SDS011;65641;44.714;37.756;2023-02-22T03:42:58;1.73;;;0.50;;
75379;SDS011;65641;44.714;37.756;2023-02-22T03:44:09;1.95;;;0.30;;
75379;SDS011;65641;44.714;37.756;2023-02-22T03:45:16;3.17;;;0.80;;
75379;SDS011;65641;44.714;37.756;2023-02-22T03:46:22;2.00;;;0.88;;
75379;SDS011;65641;44.714;37.756;2023-02-22T03:47:27;1.45;;;0.52;;
75379;SDS011;65641;44.714;37.756;2023-02-22T03:50:04;2.45;;;0.65;;
75379;SDS011;65641;44.714;37.756;2023-02-22T03:51:27;1.10;;;0.38;;
75379;SDS011;65641;44.714;37.756;2023-02-22T03:52:34;2.08;;;0.73;;
75379;SDS011;65641;44.714;37.756;2023-02-22T03:53:43;1.00;;;0.40;;
75379;SDS011;65641;44.714;37.756;2023-02-22T03:54:46;1.52;;;0.73;;
75379;SDS011;65641;44.714;37.756;2023-02-22T03:55:50;1.30;;;0.45;;
75379;SDS011;65641;44.714;37.756;2023-02-22T03:56:55;1.80;;;0.40;;
75379;SDS011;65641;44.714;37.756;2023-02-22T03:58:14;1.30;;;0.40;;
75379;SDS011;65641;44.714;37.756;2023-02-22T03:59:17;2.45;;;0.60;;
75379;SDS011;65641;44.714;37.756;2023-02-22T04:00:27;1.60;;;0.65;;
75379;SDS011;65641;44.714;37.756;2023-02-22T04:01:32;0.80;;;0.50;;
75379;SDS011;65641;44.714;37.756;2023-02-22T04:02:36;1.75;;;0.57;;
75379;SDS011;65641;44.714;37.756;2023-02-22T04:03:39;2.67;;;0.60;;
75379;SDS011;65641;44.714;37.756;2023-02-22T04:04:44;2.38;;;0.50;;
75379;SDS011;65641;44.714;37.756;2023-02-22T04:05:49;2.28;;;0.68;;
75379;SDS011;65641;44.714;37.756;2023-02-22T04:06:53;1.70;;;0.63;;
75379;SDS011;65641;44.714;37.756;2023-02-22T04:07:57;2.22;;;0.60;;
75379;SDS011;65641;44.714;37.756;2023-02-22T04:09:01;1.48;;;0.40;;
75379;SDS011;65641;44.714;37.756;2023-02-22T04:10:04;1.65;;;0.40;;
75379;SDS011;65641;44.714;37.756;2023-02-22T04:11:11;2.83;;;0.82;;
75379;SDS011;65641;44.714;37.756;2023-02-22T04:12:15;2.47;;;1.00;;
75379;SDS011;65641;44.714;37.756;2023-02-22T04:13:28;2.22;;;0.70;;
75379;SDS011;65641;44.714;37.756;2023-02-22T04:14:32;1.90;;;0.40;;
75379;SDS011;65641;44.714;37.756;2023-02-22T04:15:36;1.38;;;0.50;;
75379;SDS011;65641;44.714;37.756;2023-02-22T04:16:42;1.23;;;0.80;;
75379;SDS011;65641;44.714;37.756;2023-02-22T04:17:46;1.23;;;0.60;;
75379;SDS011;65641;44.714;37.756;2023-02-22T04:18:49;1.95;;;0.88;;
75379;SDS011;65641;44.714;37.756;2023-02-22T04:19:53;3.22;;;0.55;;
75379;SDS011;65641;44.714;37.756;2023-02-22T04:20:58;1.70;;;0.40;;
75379;SDS011;65641;44.714;37.756;2023-02-22T04:22:09;2.00;;;0.50;;
75379;SDS011;65641;44.714;37.756;2023-02-22T04:23:12;1.42;;;0.68;;
75379;SDS011;65641;44.714;37.756;2023-02-22T04:24:16;1.35;;;0.80;;
75379;SDS011;65641;44.714;37.756;2023-02-22T04:25:19;3.60;;;0.88;;
75379;SDS011;65641;44.714;37.756;2023-02-22T04:26:23;0.90;;;0.60;;
75379;SDS011;65641;44.714;37.756;2023-02-22T04:27:29;2.55;;;0.75;;
75379;SDS011;65641;44.714;37.756;2023-02-22T04:28:33;1.95;;;0.30;;
75379;SDS011;65641;44.714;37.756;2023-02-22T04:29:45;1.70;;;0.55;;
75379;SDS011;65641;44.714;37.756;2023-02-22T04:30:48;1.90;;;0.60;;
75379;SDS011;65641;44.714;37.756;2023-02-22T04:31:52;1.73;;;0.50;;
75379;SDS011;65641;44.714;37.756;2023-02-22T04:32:56;1.00;;;0.40;;
75379;SDS011;65641;44.714;37.756;2023-02-22T04:33:59;1.08;;;0.30;;
75379;SDS011;65641;44.714;37.756;2023-02-22T04:35:08;1.65;;;0.40;;
75379;SDS011;65641;44.714;37.756;2023-02-22T04:36:11;1.48;;;0.65;;
75379;SDS011;65641;44.714;37.756;2023-02-22T04:38:21;1.92;;;0.45;;
75379;SDS011;65641;44.714;37.756;2023-02-22T04:39:32;2.33;;;0.65;;
75379;SDS011;65641;44.714;37.756;2023-02-22T04:40:36;1.92;;;0.57;;
75379;SDS011;65641;44.714;37.756;2023-02-22T04:41:39;1.17;;;0.70;;
75379;SDS011;65641;44.714;37.756;2023-02-22T04:42:42;3.35;;;0.70;;
75379;SDS011;65641;44.714;37.756;2023-02-22T04:43:45;1.63;;;0.40;;
75379;SDS011;65641;44.714;37.756;2023-02-22T04:44:55;1.58;;;0.50;;
75379;SDS011;65641;44.714;37.756;2023-02-22T04:45:58;1.48;;;0.73;;
75379;SDS011;65641;44.714;37.756;2023-02-22T04:47:01;1.25;;;0.40;;
75379;SDS011;65641;44.714;37.756;2023-02-22T04:48:04;2.00;;;0.70;;
75379;SDS011;65641;44.714;37.756;2023-02-22T04:49:07;3.33;;;0.75;;
75379;SDS011;65641;44.714;37.756;2023-02-22T04:50:12;1.83;;;0.40;;
75379;SDS011;65641;44.714;37.756;2023-02-22T04:51:16;1.85;;;0.45;;
75379;SDS011;65641;44.714;37.756;2023-02-22T04:52:34;2.10;;;0.55;;
75379;SDS011;65641;44.714;37.756;2023-02-22T04:53:37;1.58;;;0.65;;
75379;SDS011;65641;44.714;37.756;2023-02-22T04:54:40;1.33;;;0.43;;
75379;SDS011;65641;44.714;37.756;2023-02-22T04:55:43;1.45;;;0.47;;
75379;SDS011;65641;44.714;37.756;2023-02-22T04:56:47;2.22;;;0.70;;
75379;SDS011;65641;44.714;37.756;2023-02-22T04:57:50;1.67;;;0.70;;
75379;SDS011;65641;44.714;37.756;2023-02-22T04:58:53;1.80;;;0.82;;
75379;SDS011;65641;44.714;37.756;2023-02-22T04:59:57;0.88;;;0.35;;
75379;SDS011;65641;44.714;37.756;2023-02-22T05:01:00;1.45;;;0.50;;
75379;SDS011;65641;44.714;37.756;2023-02-22T05:02:04;1.42;;;0.47;;
75379;SDS011;65641;44.714;37.756;2023-02-22T05:03:07;2.78;;;0.68;;
75379;SDS011;65641;44.714;37.756;2023-02-22T05:04:10;2.45;;;0.38;;
75379;SDS011;65641;44.714;37.756;2023-02-22T05:05:14;1.85;;;0.47;;
75379;SDS011;65641;44.714;37.756;2023-02-22T05:06:22;1.33;;;0.63;;
75379;SDS011;65641;44.714;37.756;2023-02-22T05:07:25;1.50;;;0.50;;
75379;SDS011;65641;44.714;37.756;2023-02-22T05:08:29;1.38;;;0.57;;
75379;SDS011;65641;44.714;37.756;2023-02-22T05:09:32;1.45;;;0.65;;
75379;SDS011;65641;44.714;37.756;2023-02-22T05:10:35;1.88;;;0.65;;
75379;SDS011;65641;44.714;37.756;2023-02-22T05:11:38;2.13;;;0.68;;
75379;SDS011;65641;44.714;37.756;2023-02-22T05:12:41;1.70;;;0.85;;
75379;SDS011;65641;44.714;37.756;2023-02-22T05:13:44;2.20;;;0.63;;
75379;SDS011;65641;44.714;37.756;2023-02-22T05:14:48;2.28;;;0.73;;
75379;SDS011;65641;44.714;37.756;2023-02-22T05:15:51;1.77;;;0.50;;
75379;SDS011;65641;44.714;37.756;2023-02-22T05:16:55;1.67;;;0.68;;
75379;SDS011;65641;44.714;37.756;2023-02-22T05:17:58;1.20;;;0.68;;
75379;SDS011;65641;44.714;37.756;2023-02-22T05:19:01;3.63;;;0.93;;
75379;SDS011;65641;44.714;37.756;2023-02-22T05:20:05;2.13;;;1.02;;
75379;SDS011;65641;44.714;37.756;2023-02-22T05:21:09;3.33;;;0.85;;
75379;SDS011;65641;44.714;37.756;2023-02-22T05:22:12;1.80;;;0.63;;
75379;SDS011;65641;44.714;37.756;2023-02-22T05:23:15;2.67;;;0.73;;
75379;SDS011;65641;44.714;37.756;2023-02-22T05:24:18;1.92;;;0.82;;
75379;SDS011;65641;44.714;37.756;2023-02-22T05:25:22;2.78;;;0.60;;
75379;SDS011;65641;44.714;37.756;2023-02-22T05:26:25;2.08;;;0.40;;
75379;SDS011;65641;44.714;37.756;2023-02-22T05:27:28;2.53;;;0.45;;
75379;SDS011;65641;44.714;37.756;2023-02-22T05:28:31;1.48;;;1.00;;
75379;SDS011;65641;44.714;37.756;2023-02-22T05:29:34;3.25;;;0.90;;
75379;SDS011;65641;44.714;37.756;2023-02-22T05:30:39;1.55;;;0.82;;
75379;SDS011;65641;44.714;37.756;2023-02-22T05:31:43;2.65;;;1.00;;
75379;SDS011;65641;44.714;37.756;2023-02-22T05:32:46;2.38;;;0.93;;
75379;SDS011;65641;44.714;37.756;2023-02-22T05:33:49;2.97;;;0.80;;
75379;SDS011;65641;44.714;37.756;2023-02-22T05:34:52;2.45;;;1.05;;
75379;SDS011;65641;44.714;37.756;2023-02-22T05:35:55;1.58;;;0.70;;
75379;SDS011;65641;44.714;37.756;2023-02-22T05:36:58;2.65;;;0.80;;
75379;SDS011;65641;44.714;37.756;2023-02-22T05:38:02;3.78;;;0.70;;
75379;SDS011;65641;44.714;37.756;2023-02-22T05:39:06;1.55;;;0.80;;
75379;SDS011;65641;44.714;37.756;2023-02-22T05:40:09;2.03;;;0.90;;
75379;SDS011;65641;44.714;37.756;2023-02-22T05:41:13;3.05;;;0.80;;
75379;SDS011;65641;44.714;37.756;2023-02-22T05:42:17;1.40;;;0.90;;
75379;SDS011;65641;44.714;37.756;2023-02-22T05:43:21;1.77;;;0.70;;
75379;SDS011;65641;44.714;37.756;2023-02-22T05:44:24;2.33;;;1.05;;
75379;SDS011;65641;44.714;37.756;2023-02-22T05:45:27;1.80;;;0.50;;
75379;SDS011;65641;44.714;37.756;2023-02-22T05:46:30;1.50;;;0.60;;
75379;SDS011;65641;44.714;37.756;2023-02-22T05:47:33;1.35;;;0.63;;
75379;SDS011;65641;44.714;37.756;2023-02-22T05:48:36;1.80;;;0.55;;
75379;SDS011;65641;44.714;37.756;2023-02-22T05:49:39;1.98;;;0.98;;
75379;SDS011;65641;44.714;37.756;2023-02-22T05:50:42;2.28;;;0.80;;
75379;SDS011;65641;44.714;37.756;2023-02-22T05:51:45;1.85;;;0.70;;
75379;SDS011;65641;44.714;37.756;2023-02-22T05:52:49;2.63;;;0.85;;
75379;SDS011;65641;44.714;37.756;2023-02-22T05:53:52;1.55;;;0.90;;
75379;SDS011;65641;44.714;37.756;2023-02-22T05:54:55;2.08;;;0.70;;
75379;SDS011;65641;44.714;37.756;2023-02-22T05:55:59;1.95;;;0.95;;
75379;SDS011;65641;44.714;37.756;2023-02-22T05:57:02;2.70;;;1.33;;
75379;SDS011;65641;44.714;37.756;2023-02-22T05:58:05;3.25;;;0.85;;
75379;SDS011;65641;44.714;37.756;2023-02-22T05:59:08;2.00;;;0.63;;
75379;SDS011;65641;44.714;37.756;2023-02-22T06:00:21;1.88;;;0.73;;
75379;SDS011;65641;44.714;37.756;2023-02-22T06:01:26;1.50;;;0.60;;
75379;SDS011;65641;44.714;37.756;2023-02-22T06:02:29;3.22;;;0.90;;
75379;SDS011;65641;44.714;37.756;2023-02-22T06:03:32;2.78;;;0.82;;
75379;SDS011;65641;44.714;37.756;2023-02-22T06:04:35;2.17;;;1.00;;
75379;SDS011;65641;44.714;37.756;2023-02-22T06:05:38;2.65;;;1.00;;
75379;SDS011;65641;44.714;37.756;2023-02-22T06:06:42;2.40;;;0.88;;
75379;SDS011;65641;44.714;37.756;2023-02-22T06:07:45;2.20;;;0.90;;
75379;SDS011;65641;44.714;37.756;2023-02-22T06:08:48;2.25;;;0.93;;
75379;SDS011;65641;44.714;37.756;2023-02-22T06:09:52;1.65;;;0.60;;
75379;SDS011;65641;44.714;37.756;2023-02-22T06:10:55;3.33;;;0.80;;
75379;SDS011;65641;44.714;37.756;2023-02-22T06:11:58;2.55;;;1.00;;
75379;SDS011;65641;44.714;37.756;2023-02-22T06:13:02;2.80;;;1.17;;
75379;SDS011;65641;44.714;37.756;2023-02-22T06:14:06;2.92;;;1.15;;
75379;SDS011;65641;44.714;37.756;2023-02-22T06:15:09;2.63;;;1.00;;
75379;SDS011;65641;44.714;37.756;2023-02-22T06:16:12;2.55;;;1.10;;
75379;SDS011;65641;44.714;37.756;2023-02-22T06:17:16;2.33;;;0.85;;
75379;SDS011;65641;44.714;37.756;2023-02-22T06:18:21;1.80;;;1.08;;
75379;SDS011;65641;44.714;37.756;2023-02-22T06:19:27;1.60;;;0.93;;
75379;SDS011;65641;44.714;37.756;2023-02-22T06:20:31;2.80;;;0.85;;
75379;SDS011;65641;44.714;37.756;2023-02-22T06:21:34;2.58;;;1.17;;
75379;SDS011;65641;44.714;37.756;2023-02-22T06:22:37;2.83;;;0.90;;
75379;SDS011;65641;44.714;37.756;2023-02-22T06:23:42;2.50;;;1.30;;
75379;SDS011;65641;44.714;37.756;2023-02-22T06:24:45;2.78;;;1.35;;
75379;SDS011;65641;44.714;37.756;2023-02-22T06:25:48;4.72;;;1.48;;
75379;SDS011;65641;44.714;37.756;2023-02-22T06:26:55;3.55;;;1.00;;
75379;SDS011;65641;44.714;37.756;2023-02-22T06:29:02;3.67;;;1.02;;
75379;SDS011;65641;44.714;37.756;2023-02-22T06:30:07;4.18;;;1.50;;
75379;SDS011;65641;44.714;37.756;2023-02-22T06:31:14;4.45;;;1.60;;
75379;SDS011;65641;44.714;37.756;2023-02-22T06:32:17;4.72;;;1.40;;
75379;SDS011;65641;44.714;37.756;2023-02-22T06:33:21;4.60;;;1.13;;
75379;SDS011;65641;44.714;37.756;2023-02-22T06:34:23;3.17;;;1.15;;
75379;SDS011;65641;44.714;37.756;2023-02-22T06:35:26;3.30;;;1.52;;
75379;SDS011;65641;44.714;37.756;2023-02-22T06:36:29;3.20;;;1.27;;
75379;SDS011;65641;44.714;37.756;2023-02-22T06:37:33;3.97;;;1.33;;
75379;SDS011;65641;44.714;37.756;2023-02-22T06:38:36;3.22;;;1.48;;
75379;SDS011;65641;44.714;37.756;2023-02-22T06:39:39;3.20;;;1.60;;
75379;SDS011;65641;44.714;37.756;2023-02-22T06:40:42;3.80;;;1.15;;
75379;SDS011;65641;44.714;37.756;2023-02-22T06:41:46;3.20;;;1.60;;
75379;SDS011;65641;44.714;37.756;2023-02-22T06:42:51;3.78;;;1.52;;
75379;SDS011;65641;44.714;37.756;2023-02-22T06:43:55;4.28;;;1.50;;
75379;SDS011;65641;44.714;37.756;2023-02-22T06:44:58;3.10;;;1.95;;
75379;SDS011;65641;44.714;37.756;2023-02-22T06:46:01;4.03;;;1.23;;
75379;SDS011;65641;44.714;37.756;2023-02-22T06:47:04;2.92;;;1.20;;
75379;SDS011;65641;44.714;37.756;2023-02-22T06:48:07;4.90;;;1.13;;
75379;SDS011;65641;44.714;37.756;2023-02-22T06:49:10;3.90;;;1.13;;
75379;SDS011;65641;44.714;37.756;2023-02-22T06:51:26;2.60;;;1.27;;
75379;SDS011;65641;44.714;37.756;2023-02-22T06:52:30;3.40;;;1.60;;
75379;SDS011;65641;44.714;37.756;2023-02-22T06:53:33;3.50;;;1.40;;
75379;SDS011;65641;44.714;37.756;2023-02-22T06:54:38;3.40;;;1.15;;
75379;SDS011;65641;44.714;37.756;2023-02-22T06:55:41;2.70;;;1.20;;
75379;SDS011;65641;44.714;37.756;2023-02-22T06:56:44;4.03;;;1.35;;
75379;SDS011;65641;44.714;37.756;2023-02-22T06:57:47;2.80;;;1.00;;
75379;SDS011;65641;44.714;37.756;2023-02-22T06:58:50;3.35;;;1.50;;
75379;SDS011;65641;44.714;37.756;2023-02-22T06:59:53;3.13;;;1.02;;
75379;SDS011;65641;44.714;37.756;2023-02-22T07:00:56;4.18;;;1.25;;
75379;SDS011;65641;44.714;37.756;2023-02-22T07:01:59;3.60;;;1.63;;
75379;SDS011;65641;44.714;37.756;2023-02-22T07:03:02;2.15;;;1.08;;